createdAt,value
2022-11-04T00:00:32.035Z,37.00
2022-11-04T00:02:54.534Z,35.65
2022-11-04T00:05:17.111Z,36.28
2022-11-04T00:07:58.033Z,40.00
2022-11-04T00:10:40.661Z,39.20
2022-11-04T00:13:03.806Z,40.10
2022-11-04T00:15:44.697Z,37.92
2022-11-04T00:18:07.727Z,44.00
2022-11-04T00:20:48.826Z,40.63
2022-11-04T00:23:49.793Z,42.67
2022-11-04T00:26:30.905Z,40.35
2022-11-04T00:28:54.289Z,40.95
2022-11-04T00:31:35.430Z,39.60
2022-11-04T00:33:59.045Z,39.25
2022-11-04T00:36:24.001Z,39.37
2022-11-04T00:38:46.689Z,40.38
2022-11-04T00:41:25.899Z,42.25
2022-11-04T00:43:48.608Z,43.72
2022-11-04T00:46:11.090Z,43.08
2022-11-04T00:48:33.578Z,47.17
2022-11-04T00:50:56.039Z,47.30
2022-11-04T00:53:18.522Z,46.28
2022-11-04T00:55:41.189Z,43.08
2022-11-04T00:58:08.039Z,46.80
2022-11-04T01:00:30.633Z,44.10
2022-11-04T01:02:53.577Z,45.67
2022-11-04T01:05:16.191Z,44.35
2022-11-04T01:07:43.520Z,44.50
2022-11-04T01:10:07.526Z,47.47
2022-11-04T01:12:30.138Z,43.83
2022-11-04T01:14:52.640Z,47.03
2022-11-04T01:17:15.706Z,45.88
2022-11-04T01:19:40.913Z,47.85
2022-11-04T01:22:03.482Z,46.75
2022-11-04T01:24:26.139Z,46.17
2022-11-04T01:26:48.651Z,46.67
2022-11-04T01:29:11.214Z,48.50
2022-11-04T01:31:34.106Z,42.10
2022-11-04T01:33:58.063Z,47.53
2022-11-04T01:36:22.025Z,45.17
2022-11-04T01:38:44.663Z,47.17
2022-11-04T01:41:08.887Z,46.72
2022-11-04T01:43:49.310Z,46.42
2022-11-04T01:46:23.414Z,46.25
2022-11-04T01:48:46.442Z,49.80
2022-11-04T01:51:10.134Z,45.83
2022-11-04T01:53:36.214Z,52.05
2022-11-04T01:56:02.575Z,58.47
2022-11-04T01:58:29.981Z,48.67
2022-11-04T02:00:52.727Z,49.65
2022-11-04T02:03:26.433Z,49.55
2022-11-04T02:05:49.074Z,48.08
2022-11-04T02:08:12.850Z,45.50
2022-11-04T02:10:35.822Z,47.65
2022-11-04T02:13:01.473Z,46.97
2022-11-04T02:15:45.417Z,49.10
2022-11-04T02:18:32.406Z,43.03
2022-11-04T02:21:21.801Z,45.00
2022-11-04T02:24:02.352Z,49.65
2022-11-04T02:27:07.482Z,47.97
2022-11-04T02:30:25.878Z,48.33
2022-11-04T02:33:14.880Z,56.75
2022-11-04T02:35:55.386Z,53.95
2022-11-04T02:38:32.994Z,49.80
2022-11-04T02:41:15.459Z,52.95
2022-11-04T02:44:02.086Z,51.45
2022-11-04T02:46:43.106Z,56.10
2022-11-04T02:49:15.870Z,48.35
2022-11-04T02:51:50.770Z,49.53
2022-11-04T02:54:25.036Z,55.97
2022-11-04T02:56:54.654Z,48.58
2022-11-04T02:59:35.307Z,50.13
2022-11-04T03:01:59.249Z,52.85
2022-11-04T03:04:29.510Z,47.72
2022-11-04T03:06:54.131Z,45.60
2022-11-04T03:09:19.730Z,50.05
2022-11-04T03:11:45.849Z,56.45
2022-11-04T03:14:13.249Z,53.03
2022-11-04T03:16:43.029Z,51.05
2022-11-04T03:19:24.221Z,59.70
2022-11-04T03:21:54.397Z,58.17
2022-11-04T03:24:17.134Z,55.47
2022-11-04T03:26:49.683Z,52.58
2022-11-04T03:29:30.918Z,60.55
2022-11-04T03:32:09.327Z,54.17
2022-11-04T03:34:32.682Z,62.40
2022-11-04T03:36:55.201Z,59.05
2022-11-04T03:39:18.032Z,57.90
2022-11-04T03:41:48.299Z,66.50
2022-11-04T03:44:11.019Z,53.42
2022-11-04T03:46:34.383Z,58.22
2022-11-04T03:48:59.553Z,56.20
2022-11-04T03:51:22.144Z,53.72
2022-11-04T03:53:44.734Z,52.97
2022-11-04T03:56:07.461Z,53.40
2022-11-04T03:59:08.167Z,52.20
2022-11-04T04:01:56.249Z,50.35
2022-11-04T04:04:34.928Z,49.75
2022-11-04T04:07:31.714Z,50.65
2022-11-04T04:10:01.359Z,54.70
2022-11-04T04:12:40.242Z,52.90
2022-11-04T04:15:13.987Z,51.80
2022-11-04T04:17:56.505Z,52.05
2022-11-04T04:20:22.749Z,52.72
2022-11-04T04:22:54.242Z,54.40
2022-11-04T04:25:36.893Z,52.63
2022-11-04T04:28:01.469Z,53.47
2022-11-04T04:30:24.395Z,54.22
2022-11-04T04:33:08.994Z,57.17
2022-11-04T04:35:43.687Z,53.40
2022-11-04T04:38:26.619Z,58.20
2022-11-04T04:41:20.750Z,55.20
2022-11-04T04:44:02.579Z,60.67
2022-11-04T04:46:25.525Z,58.35
2022-11-04T04:48:48.515Z,61.30
2022-11-04T04:51:11.214Z,58.88
2022-11-04T04:53:33.706Z,59.70
2022-11-04T04:55:56.266Z,61.25
2022-11-04T04:58:18.830Z,54.60
2022-11-04T05:00:41.628Z,54.97
2022-11-04T05:03:04.165Z,56.35
2022-11-04T05:05:26.727Z,59.08
2022-11-04T05:07:50.572Z,59.38
2022-11-04T05:10:14.574Z,56.58
2022-11-04T05:12:57.858Z,61.72
2022-11-04T05:15:20.398Z,61.10
2022-11-04T05:17:43.174Z,63.15
2022-11-04T05:20:06.178Z,60.28
2022-11-04T05:22:28.742Z,64.63
2022-11-04T05:24:51.557Z,59.40
2022-11-04T05:27:14.034Z,58.70
2022-11-04T05:29:36.660Z,69.25
2022-11-04T05:31:59.303Z,59.95
2022-11-04T05:34:22.014Z,67.47
2022-11-04T05:36:44.728Z,69.72
2022-11-04T05:39:11.157Z,66.78
2022-11-04T05:41:34.546Z,67.25
2022-11-04T05:43:59.221Z,65.57
2022-11-04T05:46:22.646Z,74.45
2022-11-04T05:48:45.205Z,73.22
2022-11-04T05:51:07.794Z,75.82
2022-11-04T05:53:30.626Z,78.72
2022-11-04T05:55:53.130Z,77.68
2022-11-04T05:58:15.783Z,81.32
2022-11-04T06:00:38.584Z,81.00
2022-11-04T06:03:01.702Z,77.82
2022-11-04T06:05:25.315Z,76.65
2022-11-04T06:07:47.910Z,87.57
2022-11-04T06:10:10.902Z,84.75
2022-11-04T06:12:33.616Z,85.80
2022-11-04T06:14:56.186Z,78.07
2022-11-04T06:17:21.360Z,93.53
2022-11-04T06:19:44.489Z,85.78
2022-11-04T06:22:07.092Z,85.63
2022-11-04T06:24:29.622Z,83.50
2022-11-04T06:26:52.327Z,90.75
2022-11-04T06:29:14.977Z,91.22
2022-11-04T06:31:37.909Z,86.55
2022-11-04T06:34:00.576Z,90.35
2022-11-04T06:36:23.180Z,84.30
2022-11-04T06:38:45.828Z,88.03
2022-11-04T06:41:12.430Z,91.10
2022-11-04T06:43:34.996Z,88.88
2022-11-04T06:45:59.221Z,81.30
2022-11-04T06:48:22.234Z,96.53
2022-11-04T06:50:44.959Z,84.60
2022-11-04T06:53:07.768Z,86.20
2022-11-04T06:55:32.847Z,79.40
2022-11-04T06:57:55.655Z,79.45
2022-11-04T07:00:18.973Z,77.73
2022-11-04T07:02:42.259Z,90.00
2022-11-04T07:05:07.221Z,84.88
2022-11-04T07:07:30.041Z,85.65
2022-11-04T07:09:54.666Z,80.80
2022-11-04T07:12:17.395Z,87.67
2022-11-04T07:14:40.093Z,91.45
2022-11-04T07:17:02.771Z,90.15
2022-11-04T07:19:26.076Z,84.93
2022-11-04T07:21:48.655Z,87.72
2022-11-04T07:24:11.684Z,82.30
2022-11-04T07:26:34.747Z,78.00
2022-11-04T07:29:00.039Z,90.35
2022-11-04T07:31:22.731Z,82.22
2022-11-04T07:33:50.155Z,78.38
2022-11-04T07:36:13.542Z,88.00
2022-11-04T07:38:36.200Z,93.88
2022-11-04T07:40:59.540Z,83.60
2022-11-04T07:43:22.395Z,88.18
2022-11-04T07:45:47.973Z,83.03
2022-11-04T07:48:11.236Z,92.00
2022-11-04T07:50:34.654Z,84.70
2022-11-04T07:52:59.275Z,81.55
2022-11-04T07:55:22.048Z,83.05
2022-11-04T07:57:48.601Z,75.72
2022-11-04T08:00:11.839Z,82.28
2022-11-04T08:02:37.239Z,80.65
2022-11-04T08:04:59.984Z,72.93
2022-11-04T08:07:22.760Z,80.78
2022-11-04T08:09:45.691Z,86.20
2022-11-04T08:12:08.384Z,88.77
2022-11-04T08:14:31.104Z,85.78
2022-11-04T08:16:53.835Z,81.38
2022-11-04T08:19:16.386Z,79.43
2022-11-04T08:21:39.012Z,76.55
2022-11-04T08:24:03.966Z,84.83
2022-11-04T08:26:26.603Z,81.00
2022-11-04T08:28:51.174Z,77.32
2022-11-04T08:31:22.008Z,81.57
2022-11-04T08:33:45.218Z,81.72
2022-11-04T08:36:34.538Z,81.70
2022-11-04T08:38:57.650Z,77.68
2022-11-04T08:41:24.628Z,79.45
2022-11-04T08:43:48.309Z,79.80
2022-11-04T08:46:14.229Z,78.45
2022-11-04T08:48:38.527Z,68.20
2022-11-04T08:51:03.041Z,74.15
2022-11-04T08:53:26.071Z,73.38
2022-11-04T08:55:48.954Z,72.85
2022-11-04T08:58:11.959Z,69.00
2022-11-04T09:00:34.803Z,73.70
2022-11-04T09:02:57.572Z,67.18
2022-11-04T09:05:20.109Z,76.43
2022-11-04T09:07:43.191Z,69.85
2022-11-04T09:10:06.343Z,69.78
2022-11-04T09:12:29.482Z,68.93
2022-11-04T09:14:52.349Z,76.32
2022-11-04T09:17:15.394Z,75.38
2022-11-04T09:19:38.117Z,63.70
2022-11-04T09:22:00.754Z,71.88
2022-11-04T09:24:23.368Z,70.23
2022-11-04T09:26:45.975Z,69.75
2022-11-04T09:29:09.936Z,77.63
2022-11-04T09:31:32.589Z,76.03
2022-11-04T09:33:55.737Z,67.85
2022-11-04T09:36:18.349Z,74.83
2022-11-04T09:38:42.361Z,73.25
2022-11-04T09:41:26.005Z,71.57
2022-11-04T09:44:10.655Z,69.05
2022-11-04T09:46:34.923Z,71.63
2022-11-04T09:49:01.084Z,65.10
2022-11-04T09:51:52.532Z,72.30
2022-11-04T09:54:19.110Z,71.80
2022-11-04T09:56:45.618Z,72.85
2022-11-04T09:59:11.883Z,60.88
2022-11-04T10:02:08.472Z,67.80
2022-11-04T10:04:56.801Z,67.72
2022-11-04T10:07:33.432Z,61.33
2022-11-04T10:09:58.946Z,68.88
2022-11-04T10:12:46.241Z,75.38
2022-11-04T10:15:22.727Z,70.77
2022-11-04T10:17:58.851Z,70.60
2022-11-04T10:20:59.919Z,65.50
2022-11-04T10:23:22.450Z,65.15
2022-11-04T10:26:00.764Z,69.75
2022-11-04T10:28:33.934Z,69.15
2022-11-04T10:30:56.525Z,68.28
2022-11-04T10:33:51.499Z,73.93
2022-11-04T10:36:15.071Z,73.20
2022-11-04T10:38:57.680Z,72.53
2022-11-04T10:41:23.895Z,71.87
2022-11-04T10:43:47.376Z,77.68
2022-11-04T10:46:19.295Z,76.18
2022-11-04T10:49:07.993Z,77.70
2022-11-04T10:51:30.972Z,74.25
2022-11-04T10:53:57.332Z,73.55
2022-11-04T10:56:32.380Z,72.20
2022-11-04T10:58:55.873Z,77.05
2022-11-04T11:01:55.540Z,73.72
2022-11-04T11:04:38.705Z,70.25
2022-11-04T11:07:08.254Z,75.67
2022-11-04T11:09:34.376Z,71.35
2022-11-04T11:12:29.422Z,72.38
2022-11-04T11:14:51.233Z,72.68
2022-11-04T11:17:22.689Z,71.28
2022-11-04T11:19:55.212Z,74.35
2022-11-04T11:22:32.118Z,71.85
2022-11-04T11:25:20.117Z,70.93
2022-11-04T11:27:49.119Z,65.63
2022-11-04T11:30:21.299Z,68.32
2022-11-04T11:32:44.719Z,65.32
2022-11-04T11:35:16.919Z,69.10
2022-11-04T11:37:40.794Z,67.05
2022-11-04T11:40:04.056Z,71.85
2022-11-04T11:42:27.294Z,65.45
2022-11-04T11:44:55.322Z,67.75
2022-11-04T11:47:25.292Z,67.38
2022-11-04T11:50:30.720Z,63.35
2022-11-04T11:52:54.627Z,66.78
2022-11-04T11:55:36.048Z,69.60
2022-11-04T12:01:35.469Z,68.57
2022-11-04T12:10:18.476Z,67.15
2022-11-04T12:13:23.654Z,67.18
2022-11-04T12:16:13.120Z,62.50
2022-11-04T12:18:44.846Z,64.93
2022-11-04T12:21:16.902Z,61.22
2022-11-04T12:24:06.102Z,65.18
2022-11-04T12:27:00.661Z,59.55
2022-11-04T12:29:51.190Z,61.25
2022-11-04T12:32:53.755Z,60.40
2022-11-04T12:36:08.010Z,60.60
2022-11-04T12:38:39.882Z,62.85
2022-11-04T12:41:34.249Z,62.60
2022-11-04T12:44:24.975Z,63.13
2022-11-04T12:47:10.465Z,63.25
2022-11-04T12:49:49.240Z,64.07
2022-11-04T12:52:32.953Z,60.75
2022-11-04T12:55:14.281Z,64.25
2022-11-04T12:58:06.532Z,66.20
2022-11-04T13:00:31.559Z,59.40
2022-11-04T13:03:18.199Z,63.03
2022-11-04T13:05:43.875Z,61.58
2022-11-04T13:08:13.963Z,60.10
2022-11-04T13:10:46.355Z,61.45
2022-11-04T13:13:14.992Z,54.83
2022-11-04T13:15:59.652Z,60.95
2022-11-04T13:18:26.133Z,56.42
2022-11-04T13:21:02.751Z,57.55
2022-11-04T13:23:32.226Z,56.90
2022-11-04T13:25:56.219Z,59.08
2022-11-04T13:28:22.261Z,56.35
2022-11-04T13:31:26.540Z,53.45
2022-11-04T13:34:03.728Z,52.58
2022-11-04T13:36:48.627Z,56.47
2022-11-04T13:39:20.233Z,57.28
2022-11-04T13:41:56.514Z,56.50
2022-11-04T13:44:30.794Z,58.47
2022-11-04T13:47:00.224Z,55.55
2022-11-04T13:49:34.269Z,60.08
2022-11-04T13:52:11.787Z,58.70
2022-11-04T13:54:34.735Z,59.28
2022-11-04T13:57:11.116Z,55.78
2022-11-04T13:59:34.507Z,53.55
2022-11-04T14:02:12.632Z,54.10
2022-11-04T14:04:37.073Z,59.53
2022-11-04T14:07:01.884Z,53.35
2022-11-04T14:09:33.912Z,55.40
2022-11-04T14:12:11.715Z,57.72
2022-11-04T14:14:35.002Z,56.17
2022-11-04T14:16:57.806Z,57.22
2022-11-04T14:19:57.770Z,53.83
2022-11-04T14:22:20.368Z,54.85
2022-11-04T14:24:44.209Z,53.40
2022-11-04T14:27:22.768Z,55.80
2022-11-04T14:29:51.121Z,55.90
2022-11-04T14:32:13.801Z,55.58
2022-11-04T14:34:42.887Z,57.22
2022-11-04T14:37:15.739Z,61.88
2022-11-04T14:39:43.196Z,60.28
2022-11-04T14:42:06.894Z,56.60
2022-11-04T14:44:49.614Z,52.42
2022-11-04T14:47:26.743Z,53.00
2022-11-04T14:50:01.666Z,53.50
2022-11-04T14:52:30.577Z,55.53
2022-11-04T14:55:17.439Z,56.13
2022-11-04T14:57:43.255Z,56.25
2022-11-04T15:00:50.121Z,55.83
2022-11-04T15:03:35.558Z,56.05
2022-11-04T15:06:04.029Z,53.10
2022-11-04T15:08:37.018Z,58.50
2022-11-04T15:11:45.774Z,57.13
2022-11-04T15:14:27.049Z,54.13
2022-11-04T15:16:53.811Z,60.47
2022-11-04T15:19:27.336Z,57.60
2022-11-04T15:21:50.018Z,59.40
2022-11-04T15:24:17.760Z,59.78
2022-11-04T15:26:40.496Z,60.20
2022-11-04T15:29:11.550Z,55.75
2022-11-04T15:31:36.030Z,58.08
2022-11-04T15:34:06.528Z,59.53
2022-11-04T15:36:42.472Z,57.25
2022-11-04T15:39:19.965Z,59.00
2022-11-04T15:42:03.799Z,57.42
2022-11-04T15:44:32.878Z,60.35
2022-11-04T15:47:00.851Z,62.97
2022-11-04T15:49:32.413Z,58.65
2022-11-04T15:52:11.942Z,60.65
2022-11-04T15:54:40.371Z,63.72
2022-11-04T15:57:12.602Z,62.33
2022-11-04T15:59:37.276Z,58.10
2022-11-04T16:02:02.108Z,63.35
2022-11-04T16:04:27.869Z,62.97
2022-11-04T16:07:09.027Z,64.18
2022-11-04T16:09:32.009Z,59.05
2022-11-04T16:12:26.924Z,64.57
2022-11-04T16:14:52.177Z,58.55
2022-11-04T16:17:14.933Z,57.45
2022-11-04T16:19:39.041Z,63.65
2022-11-04T16:22:09.751Z,62.45
2022-11-04T16:24:34.854Z,65.03
2022-11-04T16:26:58.226Z,58.42
2022-11-04T16:29:27.932Z,63.47
2022-11-04T16:32:40.000Z,60.25
2022-11-04T16:35:13.574Z,63.95
2022-11-04T16:37:36.691Z,59.88
2022-11-04T16:39:59.332Z,58.70
2022-11-04T16:42:22.301Z,56.20
2022-11-04T16:44:55.612Z,56.13
2022-11-04T16:47:19.329Z,59.28
2022-11-04T16:49:41.897Z,54.75
2022-11-04T16:52:13.636Z,51.38
2022-11-04T16:54:36.201Z,55.88
2022-11-04T16:57:00.207Z,57.97
2022-11-04T16:59:23.646Z,55.67
2022-11-04T17:01:46.359Z,57.75
2022-11-04T17:04:09.597Z,62.08
2022-11-04T17:06:32.146Z,56.75
2022-11-04T17:08:55.643Z,62.03
2022-11-04T17:11:18.389Z,60.78
2022-11-04T17:13:41.156Z,54.33
2022-11-04T17:16:10.514Z,59.40
2022-11-04T17:18:34.892Z,60.55
2022-11-04T17:20:59.267Z,62.60
2022-11-04T17:23:22.759Z,61.00
2022-11-04T17:25:45.736Z,59.00
2022-11-04T17:28:08.912Z,62.00
2022-11-04T17:30:31.882Z,63.72
2022-11-04T17:32:54.891Z,60.70
2022-11-04T17:35:18.025Z,64.82
2022-11-04T17:37:41.147Z,59.97
2022-11-04T17:40:05.193Z,60.17
2022-11-04T17:42:49.514Z,64.25
2022-11-04T17:45:12.396Z,58.97
2022-11-04T17:47:36.201Z,63.30
2022-11-04T17:49:58.981Z,60.13
2022-11-04T17:52:22.938Z,58.50
2022-11-04T17:54:45.583Z,58.70
2022-11-04T17:57:08.131Z,60.13
2022-11-04T17:59:35.458Z,64.32
2022-11-04T18:02:00.354Z,68.88
2022-11-04T18:04:23.893Z,69.18
2022-11-04T18:06:46.729Z,69.25
2022-11-04T18:09:11.046Z,67.75
2022-11-04T18:11:52.262Z,67.90
2022-11-04T18:14:17.122Z,66.55
2022-11-04T18:16:41.463Z,65.85
2022-11-04T18:19:04.521Z,71.97
2022-11-04T18:21:28.786Z,69.15
2022-11-04T18:23:51.707Z,65.38
2022-11-04T18:26:15.403Z,67.13
2022-11-04T18:28:38.854Z,65.93
2022-11-04T18:31:01.676Z,60.65
2022-11-04T18:33:24.517Z,57.55
2022-11-04T18:35:47.313Z,57.33
2022-11-04T18:38:10.563Z,60.80
2022-11-04T18:40:33.570Z,56.08
2022-11-04T18:42:56.871Z,61.55
2022-11-04T18:45:20.062Z,58.90
2022-11-04T18:47:43.227Z,59.72
2022-11-04T18:50:06.610Z,64.05
2022-11-04T18:52:29.407Z,57.20
2022-11-04T18:54:52.185Z,57.63
2022-11-04T18:57:15.109Z,56.72
2022-11-04T18:59:38.510Z,55.63
2022-11-04T19:02:01.496Z,55.80
2022-11-04T19:04:24.515Z,55.92
2022-11-04T19:06:47.446Z,55.08
2022-11-04T19:12:16.174Z,50.30
2022-11-04T19:14:40.490Z,59.95
2022-11-04T19:17:03.258Z,62.50
2022-11-04T19:19:26.694Z,54.63
2022-11-04T19:21:49.734Z,51.78
2022-11-04T19:24:12.630Z,56.90
2022-11-04T19:26:35.726Z,54.17
2022-11-04T19:29:01.008Z,68.63
2022-11-04T19:31:26.784Z,67.50
2022-11-04T19:33:50.576Z,63.42
2022-11-04T19:36:14.724Z,61.60
2022-11-04T19:38:37.973Z,60.15
2022-11-04T19:41:05.956Z,61.03
2022-11-04T19:43:28.685Z,56.53
2022-11-04T19:45:51.699Z,54.35
2022-11-04T19:48:15.062Z,60.13
2022-11-04T19:50:43.388Z,60.72
2022-11-04T19:53:06.480Z,59.58
2022-11-04T19:55:31.054Z,59.65
2022-11-04T19:57:53.666Z,59.80
2022-11-04T20:00:16.492Z,55.47
2022-11-04T20:02:39.481Z,54.47
2022-11-04T20:05:02.333Z,52.47
2022-11-04T20:07:25.370Z,55.25
2022-11-04T20:09:48.942Z,55.33
2022-11-04T20:12:30.630Z,51.45
2022-11-04T20:14:57.321Z,53.38
2022-11-04T20:17:20.215Z,51.65
2022-11-04T20:19:43.383Z,47.40
2022-11-04T20:22:06.238Z,46.17
2022-11-04T20:24:29.022Z,49.72
2022-11-04T20:26:51.733Z,44.85
2022-11-04T20:29:17.820Z,48.97
2022-11-04T20:31:41.288Z,49.80
2022-11-04T20:34:09.916Z,51.63
2022-11-04T20:36:32.619Z,49.33
2022-11-04T20:38:59.884Z,52.55
2022-11-04T20:41:22.854Z,51.60
2022-11-04T20:43:47.274Z,53.88
2022-11-04T20:46:22.013Z,54.30
2022-11-04T20:48:44.805Z,49.30
2022-11-04T20:51:09.534Z,54.10
2022-11-04T20:53:32.394Z,52.65
2022-11-04T20:55:54.893Z,48.20
2022-11-04T20:58:17.767Z,48.30
2022-11-04T21:00:40.591Z,46.75
2022-11-04T21:03:04.055Z,48.85
2022-11-04T21:05:26.826Z,52.22
2022-11-04T21:07:49.495Z,52.90
2022-11-04T21:10:12.345Z,51.55
2022-11-04T21:12:35.304Z,53.13
2022-11-04T21:14:58.050Z,53.85
2022-11-04T21:17:21.354Z,56.85
2022-11-04T21:19:44.278Z,64.72
2022-11-04T21:22:07.226Z,62.13
2022-11-04T21:24:32.716Z,71.57
2022-11-04T21:26:58.741Z,69.22
2022-11-04T21:29:21.414Z,68.78
2022-11-04T21:31:45.521Z,71.53
2022-11-04T21:34:08.396Z,68.15
2022-11-04T21:36:31.949Z,65.80
2022-11-04T21:38:54.549Z,65.40
2022-11-04T21:41:25.937Z,58.40
2022-11-04T21:43:53.517Z,53.60
2022-11-04T21:46:16.227Z,51.03
2022-11-04T21:48:40.041Z,42.00
2022-11-04T21:51:13.880Z,42.92
2022-11-04T21:53:37.182Z,38.58
2022-11-04T21:56:03.884Z,42.17
2022-11-04T21:58:28.498Z,39.58
2022-11-04T22:00:55.865Z,37.63
2022-11-04T22:03:18.581Z,34.85
2022-11-04T22:05:41.229Z,37.13
2022-11-04T22:08:19.926Z,34.22
2022-11-04T22:10:42.434Z,28.15
2022-11-04T22:13:04.882Z,30.35
2022-11-04T22:15:49.285Z,31.40
2022-11-04T22:18:12.261Z,27.52
2022-11-04T22:20:36.513Z,27.55
2022-11-04T22:22:59.179Z,23.63
2022-11-04T22:25:21.717Z,25.73
2022-11-04T22:27:44.322Z,21.02
2022-11-04T22:30:07.839Z,22.48
2022-11-04T22:32:30.631Z,20.88
2022-11-04T22:34:53.142Z,20.83
2022-11-04T22:37:15.666Z,20.48
2022-11-04T22:39:38.522Z,21.25
2022-11-04T22:42:01.137Z,18.88
2022-11-04T22:44:23.884Z,18.63
2022-11-04T22:46:46.422Z,16.73
2022-11-04T22:49:09.077Z,15.88
2022-11-04T22:51:32.613Z,16.27
2022-11-04T22:54:00.026Z,15.20
2022-11-04T22:56:25.665Z,16.00
2022-11-04T22:58:48.435Z,15.35
2022-11-04T23:01:14.082Z,19.33
2022-11-04T23:03:37.090Z,13.55
2022-11-04T23:06:03.126Z,14.10
2022-11-04T23:08:27.231Z,7.60
2022-11-04T23:11:08.758Z,9.05
2022-11-04T23:13:51.367Z,8.65
2022-11-04T23:16:32.730Z,6.63
2022-11-04T23:18:55.339Z,6.32
2022-11-04T23:21:39.431Z,6.88
2022-11-04T23:24:20.843Z,6.97
2022-11-04T23:26:45.469Z,5.85
2022-11-04T23:29:27.376Z,5.80
2022-11-04T23:31:50.786Z,5.82
2022-11-04T23:34:32.295Z,6.07
2022-11-04T23:37:13.342Z,5.95
2022-11-04T23:39:35.914Z,6.93
2022-11-04T23:42:16.540Z,5.35
2022-11-04T23:44:57.786Z,4.80
2022-11-04T23:47:39.178Z,7.60
2022-11-04T23:50:21.255Z,5.63
2022-11-04T23:53:02.527Z,4.80
2022-11-04T23:55:57.678Z,5.13
2022-11-04T23:58:39.155Z,5.32
